createdAt,value
2023-05-08T00:02:24.892Z,101760.27
2023-05-08T00:04:56.824Z,101761.70
2023-05-08T00:07:28.750Z,101762.08
2023-05-08T00:10:01.220Z,101756.86
2023-05-08T00:12:32.886Z,101753.98
2023-05-08T00:15:05.588Z,101755.96
2023-05-08T00:17:35.933Z,101753.95
2023-05-08T00:20:09.753Z,101756.80
2023-05-08T00:22:41.865Z,101758.23
2023-05-08T00:25:13.692Z,101758.58
2023-05-08T00:27:45.331Z,101763.57
2023-05-08T00:30:17.594Z,101761.39
2023-05-08T00:32:49.462Z,101760.48
2023-05-08T00:35:21.490Z,101758.84
2023-05-08T00:37:53.203Z,101756.81
2023-05-08T00:40:25.336Z,101759.66
2023-05-08T00:42:57.120Z,101757.30
2023-05-08T00:45:33.938Z,101759.20
2023-05-08T00:48:07.995Z,101763.45
2023-05-08T00:50:40.125Z,101765.58
2023-05-08T00:53:12.814Z,101763.72
2023-05-08T00:55:43.136Z,101765.64
2023-05-08T00:58:16.553Z,101765.00
2023-05-08T01:00:50.293Z,101770.99
2023-05-08T01:03:23.901Z,101772.26
2023-05-08T01:05:56.919Z,101767.56
2023-05-08T01:08:27.380Z,101771.35
2023-05-08T01:11:18.929Z,101768.83
2023-05-08T01:14:08.885Z,101768.46
2023-05-08T01:16:45.192Z,101773.69
2023-05-08T01:19:44.520Z,101776.73
2023-05-08T01:22:29.398Z,101780.29
2023-05-08T01:25:38.634Z,101782.77
2023-05-08T01:28:32.345Z,101785.60
2023-05-08T01:31:17.676Z,101786.80
2023-05-08T01:33:56.762Z,101789.06
2023-05-08T01:36:41.030Z,101786.56
2023-05-08T01:39:20.037Z,101787.34
2023-05-08T01:42:01.726Z,101790.36
2023-05-08T01:44:38.599Z,101789.78
2023-05-08T01:47:13.227Z,101787.09
2023-05-08T01:49:50.302Z,101790.68
2023-05-08T01:52:29.007Z,101792.27
2023-05-08T01:55:04.615Z,101794.36
2023-05-08T01:57:39.348Z,101800.14
2023-05-08T02:00:13.795Z,101801.53
2023-05-08T02:02:48.538Z,101800.40
2023-05-08T02:05:22.292Z,101797.56
2023-05-08T02:07:55.546Z,101804.14
2023-05-08T02:10:31.227Z,101804.48
2023-05-08T02:13:05.366Z,101805.59
2023-05-08T02:15:38.730Z,101801.45
2023-05-08T02:18:13.012Z,101802.36
2023-05-08T02:20:45.307Z,101799.64
2023-05-08T02:23:19.000Z,101796.92
2023-05-08T02:25:52.459Z,101799.72
2023-05-08T02:28:25.745Z,101803.13
2023-05-08T02:30:59.610Z,101804.76
2023-05-08T02:33:33.966Z,101809.60
2023-05-08T02:36:08.367Z,101807.06
2023-05-08T02:38:42.763Z,101803.85
2023-05-08T02:41:18.560Z,101807.44
2023-05-08T02:43:52.675Z,101809.41
2023-05-08T02:46:31.019Z,101803.42
2023-05-08T02:49:06.450Z,101811.90
2023-05-08T02:51:50.198Z,101814.92
2023-05-08T02:54:30.222Z,101815.45
2023-05-08T02:57:07.402Z,101817.27
2023-05-08T02:59:45.734Z,101817.61
2023-05-08T03:02:29.657Z,101819.97
2023-05-08T03:05:09.258Z,101819.55
2023-05-08T03:07:45.062Z,101820.14
2023-05-08T03:10:19.695Z,101822.81
2023-05-08T03:12:54.567Z,101827.13
2023-05-08T03:15:32.964Z,101830.71
2023-05-08T03:18:08.882Z,101830.17
2023-05-08T03:20:44.614Z,101831.98
2023-05-08T03:23:19.466Z,101834.01
2023-05-08T03:25:52.440Z,101827.60
2023-05-08T03:28:25.438Z,101827.58
2023-05-08T03:30:59.964Z,101832.52
2023-05-08T03:33:33.768Z,101837.42
2023-05-08T03:36:07.105Z,101832.42
2023-05-08T03:38:39.157Z,101834.69
2023-05-08T03:41:12.685Z,101838.02
2023-05-08T03:43:45.320Z,101835.88
2023-05-08T03:46:20.248Z,101839.77
2023-05-08T03:48:54.207Z,101844.77
2023-05-08T03:51:27.907Z,101842.50
2023-05-08T03:53:59.667Z,101842.40
2023-05-08T03:56:31.969Z,101841.17
2023-05-08T03:59:15.330Z,101838.23
2023-05-08T04:01:56.207Z,101837.77
2023-05-08T04:04:39.780Z,101843.08
2023-05-08T04:07:17.016Z,101843.80
2023-05-08T04:10:01.204Z,101846.82
2023-05-08T04:12:37.088Z,101847.86
2023-05-08T04:15:12.864Z,101849.79
2023-05-08T04:17:48.853Z,101849.14
2023-05-08T04:20:24.146Z,101849.00
2023-05-08T04:22:58.106Z,101847.69
2023-05-08T04:25:31.878Z,101848.96
2023-05-08T04:28:04.166Z,101852.86
2023-05-08T04:30:34.990Z,101862.92
2023-05-08T04:33:08.560Z,101865.02
2023-05-08T04:35:41.170Z,101866.61
2023-05-08T04:38:13.154Z,101866.18
2023-05-08T04:40:45.681Z,101870.50
2023-05-08T04:43:17.607Z,101871.98
2023-05-08T04:45:49.639Z,101874.39
2023-05-08T04:48:21.434Z,101874.27
2023-05-08T04:50:53.358Z,101881.92
2023-05-08T04:53:25.607Z,101889.88
2023-05-08T04:55:59.245Z,101889.41
2023-05-08T04:58:31.341Z,101895.23
2023-05-08T05:01:06.342Z,101900.00
2023-05-08T05:03:38.607Z,101905.20
2023-05-08T05:06:10.744Z,101909.56
2023-05-08T05:08:41.892Z,101911.06
2023-05-08T05:11:14.313Z,101910.44
2023-05-08T05:13:46.257Z,101909.04
2023-05-08T05:16:18.538Z,101910.71
2023-05-08T05:18:50.993Z,101911.48
2023-05-08T05:21:23.112Z,101910.27
2023-05-08T05:23:55.056Z,101918.94
2023-05-08T05:26:26.804Z,101922.78
2023-05-08T05:28:59.135Z,101927.30
2023-05-08T05:31:31.949Z,101929.53
2023-05-08T05:34:02.631Z,101928.50
2023-05-08T05:36:34.876Z,101934.90
2023-05-08T05:39:06.947Z,101933.89
2023-05-08T05:41:39.405Z,101932.84
2023-05-08T05:44:11.234Z,101933.80
2023-05-08T05:46:44.478Z,101933.30
2023-05-08T05:49:16.784Z,101938.77
2023-05-08T05:51:49.573Z,101935.73
2023-05-08T05:54:21.791Z,101939.55
2023-05-08T05:56:54.349Z,101944.48
2023-05-08T05:59:26.407Z,101940.35
2023-05-08T06:01:59.387Z,101941.64
2023-05-08T06:04:31.514Z,101941.13
2023-05-08T06:07:03.470Z,101941.35
2023-05-08T06:09:36.588Z,101945.33
2023-05-08T06:12:08.545Z,101947.18
2023-05-08T06:14:40.828Z,101950.61
2023-05-08T06:17:12.171Z,101947.74
2023-05-08T06:19:44.087Z,101947.77
2023-05-08T06:22:15.877Z,101946.34
2023-05-08T06:24:48.113Z,101949.60
2023-05-08T06:27:22.949Z,101950.52
2023-05-08T06:29:55.325Z,101948.94
2023-05-08T06:32:27.718Z,101950.40
2023-05-08T06:34:59.468Z,101949.52
2023-05-08T06:37:31.249Z,101949.19
2023-05-08T06:40:12.258Z,101953.73
2023-05-08T06:42:44.885Z,101949.95
2023-05-08T06:45:17.091Z,101950.50
2023-05-08T06:47:48.900Z,101948.70
2023-05-08T06:50:21.764Z,101953.93
2023-05-08T06:52:51.989Z,101953.82
2023-05-08T06:55:24.421Z,101953.83
2023-05-08T06:57:56.269Z,101959.80
2023-05-08T07:00:28.637Z,101962.53
2023-05-08T07:03:00.426Z,101964.16
2023-05-08T07:05:32.511Z,101964.35
2023-05-08T07:08:04.414Z,101964.00
2023-05-08T07:10:36.241Z,101968.69
2023-05-08T07:13:08.078Z,101965.80
2023-05-08T07:15:40.138Z,101970.69
2023-05-08T07:18:11.967Z,101971.08
2023-05-08T07:20:43.983Z,101973.60
2023-05-08T07:23:16.680Z,101976.33
2023-05-08T07:25:48.570Z,101967.83
2023-05-08T07:28:20.446Z,101977.77
2023-05-08T07:30:52.681Z,101976.33
2023-05-08T07:33:24.509Z,101979.02
2023-05-08T07:35:56.440Z,101979.04
2023-05-08T07:38:28.346Z,101980.11
2023-05-08T07:41:02.219Z,101975.78
2023-05-08T07:43:34.395Z,101976.31
2023-05-08T07:46:06.563Z,101976.48
2023-05-08T07:48:38.421Z,101977.20
2023-05-08T07:51:11.203Z,101976.84
2023-05-08T07:53:41.453Z,101978.29
2023-05-08T07:56:13.268Z,101978.66
2023-05-08T07:58:45.967Z,101981.55
2023-05-08T08:01:18.369Z,101978.11
2023-05-08T08:03:50.755Z,101984.96
2023-05-08T08:06:22.783Z,101982.41
2023-05-08T08:08:54.555Z,101975.53
2023-05-08T08:11:26.353Z,101974.80
2023-05-08T08:13:58.225Z,101977.33
2023-05-08T08:16:33.524Z,101972.80
2023-05-08T08:19:05.421Z,101969.35
2023-05-08T08:21:37.357Z,101968.26
2023-05-08T08:24:09.465Z,101969.15
2023-05-08T08:26:41.216Z,101972.05
2023-05-08T08:29:13.042Z,101971.67
2023-05-08T08:31:44.914Z,101969.30
2023-05-08T08:34:16.889Z,101964.55
2023-05-08T08:36:48.660Z,101960.19
2023-05-08T08:39:20.835Z,101959.64
2023-05-08T08:41:52.786Z,101962.34
2023-05-08T08:44:24.776Z,101957.23
2023-05-08T08:46:59.096Z,101959.38
2023-05-08T08:49:35.945Z,101961.52
2023-05-08T08:52:13.122Z,101963.33
2023-05-08T08:54:47.944Z,101961.87
2023-05-08T08:57:21.254Z,101957.87
2023-05-08T08:59:54.320Z,101958.72
2023-05-08T09:02:27.829Z,101961.19
2023-05-08T09:05:18.946Z,101961.13
2023-05-08T09:07:51.543Z,101960.17
2023-05-08T09:10:24.733Z,101950.53
2023-05-08T09:12:56.855Z,101949.13
2023-05-08T09:15:28.728Z,101951.23
2023-05-08T09:18:01.796Z,101946.46
2023-05-08T09:20:33.646Z,101945.51
2023-05-08T09:23:05.497Z,101944.52
2023-05-08T09:25:47.969Z,101948.05
2023-05-08T09:28:20.663Z,101941.52
2023-05-08T09:30:51.576Z,101942.06
2023-05-08T09:33:25.303Z,101939.05
2023-05-08T09:35:58.099Z,101938.75
2023-05-08T09:38:40.687Z,101941.19
2023-05-08T09:41:15.679Z,101932.63
2023-05-08T09:44:02.978Z,101934.15
2023-05-08T09:46:35.818Z,101930.77
2023-05-08T09:49:05.995Z,101932.52
2023-05-08T09:51:38.127Z,101934.10
2023-05-08T09:54:19.608Z,101939.15
2023-05-08T09:56:52.940Z,101937.54
2023-05-08T09:59:30.780Z,101938.24
2023-05-08T10:02:16.249Z,101933.52
2023-05-08T10:04:48.293Z,101935.44
2023-05-08T10:07:30.545Z,101933.51
2023-05-08T10:10:04.295Z,101938.27
2023-05-08T10:12:38.026Z,101931.88
2023-05-08T10:15:12.106Z,101931.41
2023-05-08T10:17:54.183Z,101924.18
2023-05-08T10:20:30.275Z,101924.74
2023-05-08T10:23:03.430Z,101927.30
2023-05-08T10:25:37.235Z,101925.30
2023-05-08T10:28:25.546Z,101924.48
2023-05-08T10:31:00.807Z,101916.52
2023-05-08T10:33:35.804Z,101918.86
2023-05-08T10:36:09.978Z,101917.30
2023-05-08T10:38:42.379Z,101914.09
2023-05-08T10:41:16.598Z,101902.98
2023-05-08T10:43:49.681Z,101896.42
2023-05-08T10:46:29.608Z,101896.11
2023-05-08T10:49:14.045Z,101898.68
2023-05-08T10:51:54.690Z,101901.41
2023-05-08T10:54:35.143Z,101904.14
2023-05-08T10:57:14.092Z,101897.23
2023-05-08T10:59:49.159Z,101892.88
2023-05-08T11:02:30.337Z,101899.90
2023-05-08T11:08:01.236Z,101895.05
2023-05-08T11:10:36.985Z,101893.85
2023-05-08T11:13:09.695Z,101888.38
2023-05-08T11:15:40.510Z,101884.21
2023-05-08T11:18:12.692Z,101878.69
2023-05-08T11:20:56.105Z,101874.33
2023-05-08T11:23:29.247Z,101879.50
2023-05-08T11:26:06.051Z,101875.84
2023-05-08T11:28:41.747Z,101870.28
2023-05-08T11:31:13.519Z,101864.14
2023-05-08T11:33:45.202Z,101860.27
2023-05-08T11:36:20.931Z,101867.35
2023-05-08T11:39:12.649Z,101865.31
2023-05-08T11:41:44.373Z,101858.96
2023-05-08T11:44:23.607Z,101859.85
2023-05-08T11:46:58.510Z,101848.14
2023-05-08T11:49:30.390Z,101859.30
2023-05-08T11:52:04.253Z,101852.73
2023-05-08T11:54:35.997Z,101846.73
2023-05-08T11:57:07.749Z,101853.54
2023-05-08T11:59:43.588Z,101855.09
2023-05-08T12:02:15.404Z,101852.98
2023-05-08T12:04:48.635Z,101844.67
2023-05-08T12:07:20.674Z,101848.31
2023-05-08T12:09:52.828Z,101841.63
2023-05-08T12:12:24.651Z,101843.42
2023-05-08T12:14:56.811Z,101841.89
2023-05-08T12:17:28.448Z,101843.01
2023-05-08T12:20:10.237Z,101845.72
2023-05-08T12:22:43.059Z,101844.64
2023-05-08T12:25:15.138Z,101846.73
2023-05-08T12:27:47.754Z,101845.87
2023-05-08T12:30:20.252Z,101846.15
2023-05-08T12:32:52.512Z,101845.35
2023-05-08T12:35:25.090Z,101840.40
2023-05-08T12:38:01.493Z,101840.62
2023-05-08T12:40:35.315Z,101841.63
2023-05-08T12:43:07.240Z,101840.02
2023-05-08T12:45:43.674Z,101842.86
2023-05-08T12:48:16.909Z,101836.30
2023-05-08T12:50:49.071Z,101831.14
2023-05-08T12:53:22.768Z,101831.16
2023-05-08T12:55:56.936Z,101827.33
2023-05-08T12:58:30.518Z,101829.63
2023-05-08T13:01:12.982Z,101828.94
2023-05-08T13:03:47.094Z,101827.48
2023-05-08T13:06:25.637Z,101822.02
2023-05-08T13:08:57.725Z,101827.02
2023-05-08T13:11:34.380Z,101819.47
2023-05-08T13:14:06.203Z,101818.80
2023-05-08T13:16:46.247Z,101820.17
2023-05-08T13:19:18.919Z,101814.52
2023-05-08T13:21:53.497Z,101808.77
2023-05-08T13:24:25.849Z,101801.02
2023-05-08T13:26:56.484Z,101798.81
2023-05-08T13:29:28.419Z,101798.50
2023-05-08T13:32:00.419Z,101801.52
2023-05-08T13:34:32.230Z,101791.30
2023-05-08T13:37:04.183Z,101787.96
2023-05-08T13:39:37.448Z,101795.02
2023-05-08T13:42:09.242Z,101797.75
2023-05-08T13:44:40.970Z,101793.41
2023-05-08T13:47:12.760Z,101785.95
2023-05-08T13:49:46.941Z,101790.23
2023-05-08T13:52:18.881Z,101783.83
2023-05-08T13:54:50.876Z,101777.56
2023-05-08T13:57:22.788Z,101777.38
2023-05-08T13:59:54.758Z,101775.23
2023-05-08T14:02:26.744Z,101766.40
2023-05-08T14:04:58.876Z,101771.65
2023-05-08T14:07:31.010Z,101773.58
2023-05-08T14:10:03.073Z,101776.36
2023-05-08T14:12:36.642Z,101774.56
2023-05-08T14:15:11.923Z,101776.81
2023-05-08T14:17:44.543Z,101775.61
2023-05-08T14:20:16.533Z,101772.66
2023-05-08T14:22:48.498Z,101768.81
2023-05-08T14:25:20.966Z,101768.69
2023-05-08T14:27:52.667Z,101770.06
2023-05-08T14:30:25.045Z,101767.95
2023-05-08T14:32:56.925Z,101763.18
2023-05-08T14:35:28.887Z,101760.17
2023-05-08T14:38:01.008Z,101763.27
2023-05-08T14:40:33.097Z,101766.81
2023-05-08T14:43:04.881Z,101763.02
2023-05-08T14:45:37.399Z,101761.63
2023-05-08T14:48:09.590Z,101757.34
2023-05-08T14:50:40.390Z,101756.75
2023-05-08T14:53:12.382Z,101752.31
2023-05-08T14:55:44.753Z,101750.54
2023-05-08T14:58:17.041Z,101753.45
2023-05-08T15:00:49.176Z,101749.58
2023-05-08T15:03:21.090Z,101747.01
2023-05-08T15:05:52.999Z,101748.06
2023-05-08T15:08:25.594Z,101736.48
2023-05-08T15:10:57.363Z,101749.06
2023-05-08T15:13:29.390Z,101743.77
2023-05-08T15:16:01.458Z,101747.95
2023-05-08T15:18:33.285Z,101745.96
2023-05-08T15:21:05.472Z,101743.57
2023-05-08T15:23:37.400Z,101739.42
2023-05-08T15:26:09.440Z,101745.57
2023-05-08T15:28:42.620Z,101743.64
2023-05-08T15:31:14.728Z,101745.38
2023-05-08T15:33:48.217Z,101738.10
2023-05-08T15:36:20.740Z,101736.10
2023-05-08T15:38:53.917Z,101738.65
2023-05-08T15:41:26.083Z,101731.20
2023-05-08T15:43:58.229Z,101734.10
2023-05-08T15:46:30.267Z,101742.05
2023-05-08T15:49:02.976Z,101738.33
2023-05-08T15:51:35.368Z,101743.14
2023-05-08T15:54:07.611Z,101731.76
2023-05-08T15:56:39.664Z,101731.59
2023-05-08T15:59:11.944Z,101725.89
2023-05-08T16:01:44.161Z,101731.55
2023-05-08T16:04:16.532Z,101732.16
2023-05-08T16:06:48.375Z,101727.66
2023-05-08T16:09:20.121Z,101723.71
2023-05-08T16:11:51.952Z,101721.55
2023-05-08T16:14:23.762Z,101725.65
2023-05-08T16:16:55.841Z,101718.55
2023-05-08T16:19:27.878Z,101711.62
2023-05-08T16:22:00.043Z,101711.80
2023-05-08T16:24:33.333Z,101712.80
2023-05-08T16:27:05.428Z,101705.86
2023-05-08T16:29:38.210Z,101704.08
2023-05-08T16:32:10.168Z,101704.11
2023-05-08T16:34:42.193Z,101708.46
2023-05-08T16:37:14.251Z,101708.94
2023-05-08T16:39:45.946Z,101713.82
2023-05-08T16:42:18.963Z,101713.52
2023-05-08T16:44:51.508Z,101707.30
2023-05-08T16:47:23.584Z,101711.64
2023-05-08T16:49:55.600Z,101712.95
2023-05-08T16:52:27.499Z,101708.05
2023-05-08T16:54:59.553Z,101707.83
2023-05-08T16:57:31.580Z,101704.09
2023-05-08T17:00:04.655Z,101701.60
2023-05-08T17:02:36.816Z,101696.89
2023-05-08T17:05:09.944Z,101694.20
2023-05-08T17:07:41.812Z,101679.48
2023-05-08T17:10:14.043Z,101691.84
2023-05-08T17:12:45.929Z,101694.36
2023-05-08T17:15:17.804Z,101698.02
2023-05-08T17:17:50.407Z,101698.23
2023-05-08T17:20:20.824Z,101699.38
2023-05-08T17:22:53.805Z,101694.06
2023-05-08T17:25:25.928Z,101697.23
2023-05-08T17:27:58.567Z,101701.13
2023-05-08T17:30:30.219Z,101700.86
2023-05-08T17:33:03.679Z,101698.35
2023-05-08T17:35:35.528Z,101700.14
2023-05-08T17:38:07.219Z,101701.58
2023-05-08T17:40:39.992Z,101696.45
2023-05-08T17:43:12.421Z,101698.84
2023-05-08T17:45:45.560Z,101694.27
2023-05-08T17:48:17.435Z,101699.80
2023-05-08T17:50:50.213Z,101698.68
2023-05-08T17:53:22.052Z,101702.98
2023-05-08T17:55:54.780Z,101701.34
2023-05-08T17:58:26.831Z,101703.91
2023-05-08T18:00:58.953Z,101703.41
2023-05-08T18:03:31.836Z,101706.61
2023-05-08T18:06:03.879Z,101701.39
2023-05-08T18:08:35.791Z,101708.52
2023-05-08T18:11:07.900Z,101709.88
2023-05-08T18:13:40.129Z,101711.92
2023-05-08T18:16:11.909Z,101710.56
2023-05-08T18:18:43.832Z,101706.55
2023-05-08T18:21:15.717Z,101712.89
2023-05-08T18:23:47.607Z,101714.08
2023-05-08T18:26:19.710Z,101712.55
2023-05-08T18:28:51.623Z,101714.48
2023-05-08T18:31:23.645Z,101713.26
2023-05-08T18:33:55.395Z,101712.56
2023-05-08T18:36:28.010Z,101719.55
2023-05-08T18:39:00.062Z,101718.04
2023-05-08T18:41:31.798Z,101725.89
2023-05-08T18:44:05.134Z,101727.45
2023-05-08T18:46:37.107Z,101729.10
2023-05-08T18:49:09.229Z,101730.02
2023-05-08T18:51:42.002Z,101732.81
2023-05-08T18:54:13.866Z,101732.67
2023-05-08T18:56:45.996Z,101737.86
2023-05-08T18:59:17.720Z,101740.50
2023-05-08T19:01:51.023Z,101747.45
2023-05-08T19:04:22.909Z,101748.20
2023-05-08T19:06:54.799Z,101749.41
2023-05-08T19:09:27.121Z,101748.33
2023-05-08T19:11:59.453Z,101746.64
2023-05-08T19:14:31.271Z,101748.46
2023-05-08T19:17:03.125Z,101756.19
2023-05-08T19:19:35.124Z,101757.88
2023-05-08T19:22:07.188Z,101756.30
2023-05-08T19:24:39.767Z,101757.59
2023-05-08T19:27:11.581Z,101753.74
2023-05-08T19:29:43.498Z,101754.32
2023-05-08T19:32:15.245Z,101750.59
2023-05-08T19:34:47.075Z,101751.47
2023-05-08T19:37:19.098Z,101749.23
2023-05-08T19:39:53.866Z,101746.05
2023-05-08T19:42:25.893Z,101748.14
2023-05-08T19:44:57.653Z,101751.80
2023-05-08T19:47:29.487Z,101744.79
2023-05-08T19:50:01.321Z,101743.81
2023-05-08T19:52:33.359Z,101742.73
2023-05-08T19:55:05.439Z,101739.64
2023-05-08T19:57:37.507Z,101737.23
2023-05-08T20:00:11.255Z,101736.77
2023-05-08T20:02:43.370Z,101739.91
2023-05-08T20:05:22.411Z,101737.10
2023-05-08T20:07:55.030Z,101738.08
2023-05-08T20:10:27.312Z,101737.75
2023-05-08T20:12:59.141Z,101739.61
2023-05-08T20:15:31.049Z,101742.85
2023-05-08T20:18:03.076Z,101743.95
2023-05-08T20:20:35.444Z,101741.74
2023-05-08T20:23:07.257Z,101742.48
2023-05-08T20:25:38.981Z,101741.40
2023-05-08T20:28:10.730Z,101740.92
2023-05-08T20:30:42.945Z,101744.52
2023-05-08T20:33:14.679Z,101741.48
2023-05-08T20:35:46.763Z,101739.85
2023-05-08T20:38:18.975Z,101737.63
2023-05-08T20:40:51.203Z,101736.02
2023-05-08T20:43:22.917Z,101742.36
2023-05-08T20:45:54.738Z,101738.84
2023-05-08T20:48:26.549Z,101744.52
2023-05-08T20:50:58.432Z,101738.88
2023-05-08T20:53:30.496Z,101739.83
2023-05-08T20:56:06.541Z,101737.32
2023-05-08T20:58:39.141Z,101733.02
2023-05-08T21:01:12.053Z,101729.75
2023-05-08T21:03:43.834Z,101731.46
2023-05-08T21:06:15.876Z,101728.05
2023-05-08T21:08:47.838Z,101729.11
2023-05-08T21:11:19.613Z,101726.16
2023-05-08T21:13:51.374Z,101723.67
2023-05-08T21:16:24.841Z,101720.63
2023-05-08T21:18:58.535Z,101723.52
2023-05-08T21:21:30.489Z,101721.40
2023-05-08T21:24:02.676Z,101721.96
2023-05-08T21:26:34.490Z,101723.78
2023-05-08T21:29:07.294Z,101718.20
2023-05-08T21:31:37.698Z,101714.80
2023-05-08T21:34:09.580Z,101718.42
2023-05-08T21:36:42.085Z,101719.50
2023-05-08T21:39:14.524Z,101718.79
2023-05-08T21:41:46.968Z,101723.34
2023-05-08T21:44:18.738Z,101721.38
2023-05-08T21:46:50.776Z,101721.59
2023-05-08T21:49:22.655Z,101722.54
2023-05-08T21:51:54.761Z,101723.82
2023-05-08T21:54:26.533Z,101723.45
2023-05-08T21:56:58.243Z,101720.27
2023-05-08T21:59:30.230Z,101720.16
2023-05-08T22:02:02.925Z,101720.37
2023-05-08T22:04:34.843Z,101722.56
2023-05-08T22:07:06.604Z,101722.48
2023-05-08T22:09:38.334Z,101720.55
2023-05-08T22:12:11.274Z,101719.99
2023-05-08T22:14:43.035Z,101721.44
2023-05-08T22:17:14.803Z,101719.63
2023-05-08T22:19:46.554Z,101718.91
2023-05-08T22:22:18.421Z,101715.85
2023-05-08T22:24:50.201Z,101717.84
2023-05-08T22:27:21.911Z,101714.42
2023-05-08T22:29:53.626Z,101718.42
2023-05-08T22:32:25.439Z,101717.89
2023-05-08T22:34:57.198Z,101718.83
2023-05-08T22:37:30.059Z,101714.71
2023-05-08T22:40:02.010Z,101719.23
2023-05-08T22:42:33.751Z,101717.80
2023-05-08T22:45:06.134Z,101716.73
2023-05-08T22:47:38.339Z,101716.77
2023-05-08T22:50:11.772Z,101714.65
2023-05-08T22:52:44.042Z,101710.30
2023-05-08T22:55:16.806Z,101707.98
2023-05-08T22:57:48.861Z,101704.93
2023-05-08T23:00:21.795Z,101703.88
2023-05-08T23:02:52.178Z,101703.70
2023-05-08T23:05:24.530Z,101697.95
2023-05-08T23:07:56.265Z,101699.77
2023-05-08T23:10:27.909Z,101698.36
2023-05-08T23:13:00.039Z,101695.51
2023-05-08T23:15:32.192Z,101694.46
2023-05-08T23:18:04.359Z,101694.63
2023-05-08T23:20:36.358Z,101689.92
2023-05-08T23:23:08.169Z,101684.91
2023-05-08T23:25:39.858Z,101680.55
2023-05-08T23:28:11.920Z,101685.08
2023-05-08T23:30:43.641Z,101683.84
2023-05-08T23:33:15.749Z,101683.13
2023-05-08T23:35:47.469Z,101678.07
2023-05-08T23:38:19.509Z,101678.42
2023-05-08T23:40:51.270Z,101677.35
2023-05-08T23:43:22.968Z,101679.90
2023-05-08T23:45:54.647Z,101677.53
2023-05-08T23:48:26.507Z,101672.31
2023-05-08T23:50:58.543Z,101669.80
2023-05-08T23:53:30.621Z,101672.52
2023-05-08T23:56:02.429Z,101666.91
2023-05-08T23:58:34.145Z,101668.00
